createdAt,value
2023-02-03T00:00:39.398Z,10.41
2023-02-03T00:01:42.128Z,10.43
2023-02-03T00:02:56.443Z,10.43
2023-02-03T00:03:58.039Z,10.44
2023-02-03T00:05:01.877Z,10.43
2023-02-03T00:06:24.699Z,10.43
2023-02-03T00:07:27.201Z,10.44
2023-02-03T00:08:29.894Z,10.44
2023-02-03T00:09:31.530Z,10.44
2023-02-03T00:10:34.798Z,10.44
2023-02-03T00:11:36.538Z,10.45
2023-02-03T00:12:39.245Z,10.46
2023-02-03T00:13:40.777Z,10.46
2023-02-03T00:14:43.255Z,10.47
2023-02-03T00:15:44.801Z,10.48
2023-02-03T00:16:47.360Z,10.47
2023-02-03T00:17:48.947Z,10.47
2023-02-03T00:18:51.665Z,10.48
2023-02-03T00:19:53.257Z,10.48
2023-02-03T00:20:57.078Z,10.49
2023-02-03T00:21:58.627Z,10.49
2023-02-03T00:23:06.087Z,10.50
2023-02-03T00:24:08.861Z,10.50
2023-02-03T00:25:10.631Z,10.50
2023-02-03T00:26:15.047Z,10.51
2023-02-03T00:27:16.601Z,10.51
2023-02-03T00:28:19.525Z,10.51
2023-02-03T00:29:25.622Z,10.51
2023-02-03T00:30:29.901Z,10.51
2023-02-03T00:31:41.549Z,10.51
2023-02-03T00:32:51.213Z,10.50
2023-02-03T00:33:55.220Z,10.51
2023-02-03T00:34:58.131Z,10.51
2023-02-03T00:36:06.125Z,10.51
2023-02-03T00:37:08.594Z,10.51
2023-02-03T00:38:10.156Z,10.52
2023-02-03T00:39:13.093Z,10.50
2023-02-03T00:40:15.467Z,10.49
2023-02-03T00:41:18.121Z,10.49
2023-02-03T00:42:19.658Z,10.49
2023-02-03T00:43:22.453Z,10.50
2023-02-03T00:44:24.288Z,10.51
2023-02-03T00:45:27.367Z,10.51
2023-02-03T00:46:28.939Z,10.52
2023-02-03T00:47:31.484Z,10.52
2023-02-03T00:48:33.107Z,10.51
2023-02-03T00:49:35.601Z,10.52
2023-02-03T00:50:37.373Z,10.52
2023-02-03T00:51:41.289Z,10.53
2023-02-03T00:52:42.825Z,10.52
2023-02-03T00:53:45.507Z,10.53
2023-02-03T00:54:47.058Z,10.52
2023-02-03T00:55:49.561Z,10.54
2023-02-03T00:56:52.030Z,10.53
2023-02-03T00:57:54.878Z,10.53
2023-02-03T00:58:57.747Z,10.54
2023-02-03T00:59:59.662Z,10.53
2023-02-03T01:01:02.192Z,10.53
2023-02-03T01:02:03.844Z,10.52
2023-02-03T01:03:06.692Z,10.52
2023-02-03T01:04:08.293Z,10.55
2023-02-03T01:05:10.782Z,10.54
2023-02-03T01:06:14.978Z,10.55
2023-02-03T01:07:18.909Z,10.55
2023-02-03T01:08:20.534Z,10.55
2023-02-03T01:09:23.370Z,10.55
2023-02-03T01:10:25.318Z,10.54
2023-02-03T01:11:29.345Z,10.53
2023-02-03T01:12:31.075Z,10.53
2023-02-03T01:13:33.565Z,10.52
2023-02-03T01:14:35.148Z,10.51
2023-02-03T01:15:37.638Z,10.52
2023-02-03T01:16:39.806Z,10.52
2023-02-03T01:17:42.490Z,10.52
2023-02-03T01:18:46.035Z,10.53
2023-02-03T01:19:48.828Z,10.52
2023-02-03T01:20:50.342Z,10.53
2023-02-03T01:21:52.871Z,10.54
2023-02-03T01:22:55.702Z,10.54
2023-02-03T01:23:59.916Z,10.54
2023-02-03T01:25:01.440Z,10.54
2023-02-03T01:26:05.700Z,10.54
2023-02-03T01:27:07.299Z,10.54
2023-02-03T01:28:09.848Z,10.54
2023-02-03T01:29:11.623Z,10.55
2023-02-03T01:30:14.681Z,10.55
2023-02-03T01:31:18.384Z,10.57
2023-02-03T01:32:21.054Z,10.56
2023-02-03T01:33:22.668Z,10.57
2023-02-03T01:34:25.302Z,10.57
2023-02-03T01:35:27.051Z,10.58
2023-02-03T01:36:31.313Z,10.56
2023-02-03T01:37:40.142Z,10.56
2023-02-03T01:38:44.739Z,10.56
2023-02-03T01:39:46.277Z,10.56
2023-02-03T01:40:48.802Z,10.57
2023-02-03T01:41:50.325Z,10.55
2023-02-03T01:42:53.748Z,10.55
2023-02-03T01:43:58.031Z,10.55
2023-02-03T01:45:01.275Z,10.56
2023-02-03T01:46:07.342Z,10.55
2023-02-03T01:47:22.626Z,10.54
2023-02-03T01:48:24.418Z,10.54
2023-02-03T01:49:31.325Z,10.54
2023-02-03T01:50:37.317Z,10.54
2023-02-03T01:51:42.299Z,10.54
2023-02-03T01:52:48.140Z,10.55
2023-02-03T01:53:53.347Z,10.56
2023-02-03T01:54:59.230Z,10.57
2023-02-03T01:56:04.784Z,10.56
2023-02-03T01:57:13.979Z,10.57
2023-02-03T01:58:21.718Z,10.57
2023-02-03T01:59:24.516Z,10.57
2023-02-03T02:00:27.573Z,10.58
2023-02-03T02:01:34.997Z,10.58
2023-02-03T02:02:38.375Z,10.59
2023-02-03T02:03:44.120Z,10.59
2023-02-03T02:04:54.870Z,10.58
2023-02-03T02:06:03.916Z,10.59
2023-02-03T02:07:07.849Z,10.60
2023-02-03T02:08:15.392Z,10.59
2023-02-03T02:09:19.492Z,10.58
2023-02-03T02:10:21.449Z,10.58
2023-02-03T02:11:24.167Z,10.59
2023-02-03T02:12:25.793Z,10.59
2023-02-03T02:13:30.567Z,10.59
2023-02-03T02:14:33.891Z,10.59
2023-02-03T02:15:45.173Z,10.59
2023-02-03T02:16:54.471Z,10.60
2023-02-03T02:18:14.543Z,10.60
2023-02-03T02:19:39.000Z,10.58
2023-02-03T02:21:24.117Z,10.59
2023-02-03T02:22:38.153Z,10.57
2023-02-03T02:24:05.664Z,10.57
2023-02-03T02:25:48.020Z,10.57
2023-02-03T02:26:57.584Z,10.57
2023-02-03T02:28:19.983Z,10.57
2023-02-03T02:29:53.701Z,10.55
2023-02-03T02:31:23.678Z,10.55
2023-02-03T02:32:43.476Z,10.55
2023-02-03T02:33:55.750Z,10.56
2023-02-03T02:35:04.597Z,10.56
2023-02-03T02:36:19.932Z,10.56
2023-02-03T02:37:29.923Z,10.56
2023-02-03T02:38:47.775Z,10.56
2023-02-03T02:39:58.061Z,10.57
2023-02-03T02:41:05.601Z,10.57
2023-02-03T02:42:15.100Z,10.57
2023-02-03T02:43:20.951Z,10.57
2023-02-03T02:44:26.601Z,10.58
2023-02-03T02:45:32.072Z,10.58
2023-02-03T02:46:39.643Z,10.58
2023-02-03T02:47:43.121Z,10.57
2023-02-03T02:48:51.118Z,10.58
2023-02-03T02:49:59.072Z,10.58
2023-02-03T02:51:15.787Z,10.59
2023-02-03T02:52:18.932Z,10.59
2023-02-03T02:53:25.606Z,10.59
2023-02-03T02:54:29.642Z,10.59
2023-02-03T02:55:35.076Z,10.60
2023-02-03T02:56:40.214Z,10.60
2023-02-03T02:57:43.529Z,10.60
2023-02-03T02:58:48.666Z,10.60
2023-02-03T02:59:51.505Z,10.58
2023-02-03T03:00:53.026Z,10.59
2023-02-03T03:01:55.569Z,10.59
2023-02-03T03:03:07.559Z,10.59
2023-02-03T03:04:13.288Z,10.60
2023-02-03T03:05:17.628Z,10.61
2023-02-03T03:06:25.940Z,10.60
2023-02-03T03:07:29.460Z,10.59
2023-02-03T03:08:36.906Z,10.60
2023-02-03T03:09:42.078Z,10.59
2023-02-03T03:10:46.031Z,10.57
2023-02-03T03:11:51.644Z,10.58
2023-02-03T03:13:00.150Z,10.58
2023-02-03T03:14:04.216Z,10.58
2023-02-03T03:15:11.845Z,10.58
2023-02-03T03:16:14.673Z,10.56
2023-02-03T03:17:21.949Z,10.57
2023-02-03T03:18:30.101Z,10.57
2023-02-03T03:19:35.825Z,10.56
2023-02-03T03:20:42.800Z,10.54
2023-02-03T03:21:51.542Z,10.55
2023-02-03T03:22:57.414Z,10.55
2023-02-03T03:24:04.101Z,10.53
2023-02-03T03:25:13.796Z,10.54
2023-02-03T03:26:21.502Z,10.54
2023-02-03T03:27:24.397Z,10.54
2023-02-03T03:28:34.021Z,10.53
2023-02-03T03:29:40.504Z,10.53
2023-02-03T03:30:42.298Z,10.52
2023-02-03T03:31:46.584Z,10.52
2023-02-03T03:32:48.913Z,10.54
2023-02-03T03:33:53.198Z,10.54
2023-02-03T03:35:06.068Z,10.53
2023-02-03T03:36:17.133Z,10.53
2023-02-03T03:37:20.567Z,10.52
2023-02-03T03:38:32.068Z,10.53
2023-02-03T03:39:37.231Z,10.51
2023-02-03T03:40:44.559Z,10.52
2023-02-03T03:41:56.365Z,10.52
2023-02-03T03:43:01.829Z,10.52
2023-02-03T03:44:06.833Z,10.52
2023-02-03T03:45:17.065Z,10.52
2023-02-03T03:46:23.424Z,10.52
2023-02-03T03:47:32.054Z,10.52
2023-02-03T03:48:39.805Z,10.52
2023-02-03T03:49:46.914Z,10.55
2023-02-03T03:50:55.819Z,10.54
2023-02-03T03:52:02.298Z,10.53
2023-02-03T03:53:06.908Z,10.54
2023-02-03T03:54:12.402Z,10.54
2023-02-03T03:55:16.485Z,10.54
2023-02-03T03:56:23.575Z,10.54
2023-02-03T03:57:30.514Z,10.54
2023-02-03T03:58:33.699Z,10.54
2023-02-03T03:59:39.253Z,10.56
2023-02-03T04:00:42.736Z,10.54
2023-02-03T04:01:47.276Z,10.56
2023-02-03T04:02:53.793Z,10.56
2023-02-03T04:03:58.360Z,10.57
2023-02-03T04:05:04.460Z,10.57
2023-02-03T04:06:06.517Z,10.54
2023-02-03T04:07:09.031Z,10.56
2023-02-03T04:08:10.580Z,10.57
2023-02-03T04:09:13.170Z,10.57
2023-02-03T04:10:23.248Z,10.57
2023-02-03T04:11:43.456Z,10.57
2023-02-03T04:12:45.941Z,10.57
2023-02-03T04:13:47.431Z,10.57
2023-02-03T04:14:50.281Z,10.56
2023-02-03T04:15:52.320Z,10.57
2023-02-03T04:16:54.984Z,10.58
2023-02-03T04:17:57.038Z,10.58
2023-02-03T04:19:08.448Z,10.59
2023-02-03T04:20:13.173Z,10.58
2023-02-03T04:21:15.873Z,10.59
2023-02-03T04:22:17.545Z,10.61
2023-02-03T04:23:20.026Z,10.61
2023-02-03T04:24:21.557Z,10.61
2023-02-03T04:25:24.295Z,10.62
2023-02-03T04:26:25.909Z,10.62
2023-02-03T04:27:28.806Z,10.62
2023-02-03T04:28:30.321Z,10.62
2023-02-03T04:29:33.050Z,10.61
2023-02-03T04:30:34.932Z,10.61
2023-02-03T04:31:38.442Z,10.62
2023-02-03T04:32:40.189Z,10.62
2023-02-03T04:33:42.659Z,10.62
2023-02-03T04:34:44.344Z,10.63
2023-02-03T04:35:48.198Z,10.62
2023-02-03T04:36:50.694Z,10.63
2023-02-03T04:37:52.460Z,10.64
2023-02-03T04:38:54.935Z,10.64
2023-02-03T04:39:56.892Z,10.64
2023-02-03T04:40:59.411Z,10.65
2023-02-03T04:42:01.497Z,10.64
2023-02-03T04:43:08.797Z,10.64
2023-02-03T04:44:10.336Z,10.64
2023-02-03T04:45:13.382Z,10.62
2023-02-03T04:46:15.447Z,10.64
2023-02-03T04:47:19.086Z,10.63
2023-02-03T04:48:20.601Z,10.63
2023-02-03T04:49:23.066Z,10.63
2023-02-03T04:50:24.700Z,10.62
2023-02-03T04:51:28.663Z,10.62
2023-02-03T04:52:30.240Z,10.62
2023-02-03T04:53:33.992Z,10.62
2023-02-03T04:54:35.537Z,10.61
2023-02-03T04:55:38.231Z,10.61
2023-02-03T04:56:39.774Z,10.62
2023-02-03T04:57:42.746Z,10.62
2023-02-03T04:58:44.644Z,10.63
2023-02-03T04:59:57.095Z,10.63
2023-02-03T05:00:58.773Z,10.63
2023-02-03T05:02:03.184Z,10.63
2023-02-03T05:03:04.747Z,10.62
2023-02-03T05:04:07.297Z,10.64
2023-02-03T05:05:08.961Z,10.62
2023-02-03T05:06:11.423Z,10.62
2023-02-03T05:07:14.297Z,10.63
2023-02-03T05:08:16.799Z,10.63
2023-02-03T05:09:28.651Z,10.63
2023-02-03T05:10:30.366Z,10.61
2023-02-03T05:11:33.431Z,10.63
2023-02-03T05:12:34.989Z,10.62
2023-02-03T05:13:37.447Z,10.62
2023-02-03T05:14:38.977Z,10.61
2023-02-03T05:15:41.477Z,10.61
2023-02-03T05:16:43.050Z,10.62
2023-02-03T05:17:45.581Z,10.61
2023-02-03T05:18:47.173Z,10.61
2023-02-03T05:19:49.667Z,10.63
2023-02-03T05:20:51.215Z,10.60
2023-02-03T05:21:53.748Z,10.61
2023-02-03T05:22:58.135Z,10.60
2023-02-03T05:24:03.074Z,10.60
2023-02-03T05:25:08.488Z,10.59
2023-02-03T05:26:11.674Z,10.60
2023-02-03T05:27:13.941Z,10.60
2023-02-03T05:28:16.529Z,10.60
2023-02-03T05:29:18.081Z,10.60
2023-02-03T05:30:20.576Z,10.60
2023-02-03T05:31:22.209Z,10.61
2023-02-03T05:32:24.751Z,10.61
2023-02-03T05:33:27.406Z,10.62
2023-02-03T05:34:28.991Z,10.61
2023-02-03T05:35:31.505Z,10.60
2023-02-03T05:36:33.296Z,10.61
2023-02-03T05:37:35.785Z,10.62
2023-02-03T05:38:38.662Z,10.62
2023-02-03T05:39:41.161Z,10.61
2023-02-03T05:41:00.672Z,10.63
2023-02-03T05:42:03.259Z,10.62
2023-02-03T05:43:04.887Z,10.60
2023-02-03T05:44:07.977Z,10.61
2023-02-03T05:45:19.533Z,10.61
2023-02-03T05:46:22.894Z,10.60
2023-02-03T05:47:24.523Z,10.62
2023-02-03T05:48:27.045Z,10.62
2023-02-03T05:49:29.586Z,10.62
2023-02-03T05:50:33.258Z,10.63
2023-02-03T05:51:35.777Z,10.61
2023-02-03T05:52:37.377Z,10.63
2023-02-03T05:53:41.237Z,10.64
2023-02-03T05:54:42.736Z,10.63
2023-02-03T05:55:45.258Z,10.64
2023-02-03T05:56:47.095Z,10.64
2023-02-03T05:57:49.589Z,10.64
2023-02-03T05:58:53.133Z,10.63
2023-02-03T05:59:55.718Z,10.63
2023-02-03T06:00:57.276Z,10.63
2023-02-03T06:01:59.811Z,10.63
2023-02-03T06:03:03.442Z,10.64
2023-02-03T06:04:06.799Z,10.64
2023-02-03T06:05:09.214Z,10.64
2023-02-03T06:06:11.820Z,10.65
2023-02-03T06:07:13.798Z,10.65
2023-02-03T06:08:16.895Z,10.64
2023-02-03T06:09:19.773Z,10.65
2023-02-03T06:10:23.060Z,10.64
2023-02-03T06:11:25.609Z,10.64
2023-02-03T06:12:29.092Z,10.64
2023-02-03T06:13:32.137Z,10.62
2023-02-03T06:14:33.737Z,10.62
2023-02-03T06:15:36.358Z,10.64
2023-02-03T06:16:38.948Z,10.64
2023-02-03T06:17:43.577Z,10.63
2023-02-03T06:18:46.112Z,10.64
2023-02-03T06:19:48.589Z,10.64
2023-02-03T06:20:50.490Z,10.63
2023-02-03T06:21:53.136Z,10.64
2023-02-03T06:22:54.644Z,10.65
2023-02-03T06:23:57.376Z,10.65
2023-02-03T06:25:01.464Z,10.66
2023-02-03T06:26:12.866Z,10.65
2023-02-03T06:27:16.544Z,10.64
2023-02-03T06:28:20.043Z,10.65
2023-02-03T06:29:21.888Z,10.65
2023-02-03T06:30:24.724Z,10.65
2023-02-03T06:31:27.359Z,10.66
2023-02-03T06:32:28.955Z,10.67
2023-02-03T06:33:32.059Z,10.67
2023-02-03T06:34:33.694Z,10.67
2023-02-03T06:35:36.316Z,10.67
2023-02-03T06:36:37.855Z,10.68
2023-02-03T06:37:41.099Z,10.67
2023-02-03T06:38:42.668Z,10.68
2023-02-03T06:39:45.376Z,10.68
2023-02-03T06:40:48.287Z,10.70
2023-02-03T06:41:51.694Z,10.69
2023-02-03T06:42:53.254Z,10.69
2023-02-03T06:43:55.793Z,10.69
2023-02-03T06:44:57.346Z,10.70
2023-02-03T06:45:59.906Z,10.70
2023-02-03T06:47:02.839Z,10.69
2023-02-03T06:48:05.605Z,10.70
2023-02-03T06:49:08.243Z,10.69
2023-02-03T06:50:13.152Z,10.70
2023-02-03T06:51:14.664Z,10.71
2023-02-03T06:52:17.207Z,10.73
2023-02-03T06:53:20.509Z,10.73
2023-02-03T06:54:23.506Z,10.73
2023-02-03T06:55:26.216Z,10.72
2023-02-03T06:56:30.774Z,10.73
2023-02-03T06:57:32.584Z,10.73
2023-02-03T06:58:35.102Z,10.74
2023-02-03T06:59:36.690Z,10.73
2023-02-03T07:00:43.770Z,10.74
2023-02-03T07:01:45.440Z,10.75
2023-02-03T07:02:54.345Z,10.74
2023-02-03T07:03:58.733Z,10.73
2023-02-03T07:05:00.289Z,10.74
2023-02-03T07:06:02.774Z,10.76
2023-02-03T07:07:04.705Z,10.74
2023-02-03T07:08:07.677Z,10.76
2023-02-03T07:09:10.196Z,10.74
2023-02-03T07:10:12.737Z,10.74
2023-02-03T07:11:14.279Z,10.77
2023-02-03T07:12:18.493Z,10.77
2023-02-03T07:13:21.316Z,10.77
2023-02-03T07:14:35.284Z,10.77
2023-02-03T07:15:39.138Z,10.76
2023-02-03T07:16:42.338Z,10.76
2023-02-03T07:17:46.855Z,10.77
2023-02-03T07:18:48.524Z,10.76
2023-02-03T07:19:51.044Z,10.77
2023-02-03T07:20:53.953Z,10.77
2023-02-03T07:21:55.591Z,10.77
2023-02-03T07:22:58.937Z,10.77
2023-02-03T07:24:02.225Z,10.77
2023-02-03T07:25:05.229Z,10.78
2023-02-03T07:26:08.995Z,10.78
2023-02-03T07:27:11.479Z,10.79
2023-02-03T07:28:15.393Z,10.78
2023-02-03T07:29:16.943Z,10.80
2023-02-03T07:30:19.893Z,10.80
2023-02-03T07:31:21.887Z,10.79
2023-02-03T07:32:24.468Z,10.79
2023-02-03T07:33:27.567Z,10.79
2023-02-03T07:34:29.224Z,10.79
2023-02-03T07:35:32.093Z,10.79
2023-02-03T07:36:33.637Z,10.80
2023-02-03T07:37:36.350Z,10.80
2023-02-03T07:38:38.112Z,10.81
2023-02-03T07:39:42.335Z,10.80
2023-02-03T07:40:44.021Z,10.80
2023-02-03T07:41:46.651Z,10.80
2023-02-03T07:42:49.351Z,10.81
2023-02-03T07:43:53.207Z,10.81
2023-02-03T07:44:54.776Z,10.80
2023-02-03T07:45:57.345Z,10.81
2023-02-03T07:46:59.871Z,10.81
2023-02-03T07:48:02.356Z,10.82
2023-02-03T07:49:05.829Z,10.82
2023-02-03T07:50:08.549Z,10.81
2023-02-03T07:51:11.165Z,10.82
2023-02-03T07:52:13.726Z,10.80
2023-02-03T07:53:15.694Z,10.81
2023-02-03T07:54:18.388Z,10.82
2023-02-03T07:55:23.731Z,10.82
2023-02-03T07:56:26.270Z,10.83
2023-02-03T07:57:28.822Z,10.83
2023-02-03T07:58:40.373Z,10.83
2023-02-03T07:59:45.768Z,10.84
2023-02-03T08:00:47.661Z,10.83
2023-02-03T08:01:50.204Z,10.83
2023-02-03T08:02:52.487Z,10.83
2023-02-03T08:03:55.413Z,10.84
2023-02-03T08:04:58.029Z,10.84
2023-02-03T08:06:00.652Z,10.86
2023-02-03T08:07:03.024Z,10.86
2023-02-03T08:08:06.118Z,10.86
2023-02-03T08:09:08.036Z,10.87
2023-02-03T08:10:13.311Z,10.87
2023-02-03T08:11:15.845Z,10.87
2023-02-03T08:12:17.385Z,10.86
2023-02-03T08:13:19.893Z,10.87
2023-02-03T08:14:22.433Z,10.88
2023-02-03T08:15:26.401Z,10.88
2023-02-03T08:16:27.986Z,10.89
2023-02-03T08:17:31.140Z,10.89
2023-02-03T08:18:33.780Z,10.88
2023-02-03T08:19:35.339Z,10.89
2023-02-03T08:20:38.997Z,10.89
2023-02-03T08:21:42.068Z,10.90
2023-02-03T08:22:44.783Z,10.89
2023-02-03T08:23:47.599Z,10.90
2023-02-03T08:24:50.084Z,10.89
2023-02-03T08:25:53.260Z,10.90
2023-02-03T08:26:55.764Z,10.91
2023-02-03T08:27:57.660Z,10.91
2023-02-03T08:29:00.140Z,10.92
2023-02-03T08:30:02.710Z,10.93
2023-02-03T08:31:11.680Z,10.92
2023-02-03T08:32:16.539Z,10.92
2023-02-03T08:33:29.604Z,10.91
2023-02-03T08:34:34.016Z,10.91
2023-02-03T08:35:36.843Z,10.90
2023-02-03T08:36:40.036Z,10.90
2023-02-03T08:37:42.904Z,10.90
2023-02-03T08:38:44.444Z,10.91
2023-02-03T08:39:47.292Z,10.91
2023-02-03T08:40:49.826Z,10.91
2023-02-03T08:41:52.300Z,10.92
2023-02-03T08:42:53.963Z,10.93
2023-02-03T08:43:56.515Z,10.94
2023-02-03T08:44:59.241Z,10.95
2023-02-03T08:46:03.875Z,10.97
2023-02-03T08:47:08.615Z,10.98
2023-02-03T08:48:11.115Z,10.96
2023-02-03T08:49:13.621Z,10.96
2023-02-03T08:50:16.112Z,10.97
2023-02-03T08:51:17.984Z,10.97
2023-02-03T08:52:22.108Z,10.96
2023-02-03T08:53:24.591Z,10.95
2023-02-03T08:54:27.432Z,10.95
2023-02-03T08:55:30.512Z,10.94
2023-02-03T08:56:34.002Z,10.94
2023-02-03T08:57:37.548Z,10.92
2023-02-03T08:58:39.273Z,10.92
2023-02-03T08:59:44.167Z,10.91
2023-02-03T09:00:50.108Z,10.92
2023-02-03T09:01:53.917Z,10.91
2023-02-03T09:02:56.821Z,10.92
2023-02-03T09:04:01.834Z,10.90
2023-02-03T09:05:03.665Z,10.91
2023-02-03T09:06:07.934Z,10.89
2023-02-03T09:07:11.255Z,10.88
2023-02-03T09:08:20.162Z,10.87
2023-02-03T09:09:26.317Z,10.85
2023-02-03T09:10:29.920Z,10.85
2023-02-03T09:11:42.181Z,10.82
2023-02-03T09:12:44.911Z,10.81
2023-02-03T09:13:48.519Z,10.81
2023-02-03T09:14:51.270Z,10.81
2023-02-03T09:15:53.775Z,10.80
2023-02-03T09:16:55.747Z,10.79
2023-02-03T09:17:59.589Z,10.80
2023-02-03T09:19:02.078Z,10.81
2023-02-03T09:20:05.433Z,10.81
2023-02-03T09:21:13.947Z,10.81
2023-02-03T09:22:23.485Z,10.81
2023-02-03T09:23:25.999Z,10.80
2023-02-03T09:24:28.618Z,10.80
2023-02-03T09:25:31.099Z,10.80
2023-02-03T09:26:32.627Z,10.80
2023-02-03T09:27:35.303Z,10.79
2023-02-03T09:28:36.920Z,10.78
2023-02-03T09:29:39.510Z,10.77
2023-02-03T09:30:41.405Z,10.77
2023-02-03T09:31:48.242Z,10.77
2023-02-03T09:32:54.442Z,10.76
2023-02-03T09:34:03.708Z,10.76
2023-02-03T09:35:06.666Z,10.73
2023-02-03T09:36:19.185Z,10.73
2023-02-03T09:37:30.386Z,10.73
2023-02-03T09:38:34.605Z,10.73
2023-02-03T09:39:37.415Z,10.73
2023-02-03T09:40:40.528Z,10.73
2023-02-03T09:42:07.491Z,10.74
2023-02-03T09:43:25.200Z,10.72
2023-02-03T09:44:38.098Z,10.71
2023-02-03T09:45:40.716Z,10.70
2023-02-03T09:46:46.246Z,10.70
2023-02-03T09:47:54.042Z,10.69
2023-02-03T09:49:14.663Z,10.69
2023-02-03T09:50:31.033Z,10.69
2023-02-03T09:51:41.162Z,10.69
2023-02-03T09:52:45.178Z,10.70
2023-02-03T09:53:55.925Z,10.70
2023-02-03T09:55:03.253Z,10.68
2023-02-03T09:56:05.904Z,10.67
2023-02-03T09:57:16.048Z,10.66
2023-02-03T09:58:22.796Z,10.68
2023-02-03T09:59:26.161Z,10.69
2023-02-03T10:00:33.576Z,10.69
2023-02-03T10:01:43.704Z,10.69
2023-02-03T10:02:56.562Z,10.71
2023-02-03T10:04:05.351Z,10.71
2023-02-03T10:05:21.248Z,10.70
2023-02-03T10:06:32.655Z,10.68
2023-02-03T10:07:45.640Z,10.68
2023-02-03T10:09:18.240Z,10.68
2023-02-03T10:10:34.901Z,10.67
2023-02-03T10:12:02.949Z,10.67
2023-02-03T10:13:20.004Z,10.67
2023-02-03T10:14:36.745Z,10.67
2023-02-03T10:15:52.800Z,10.67
2023-02-03T10:17:10.952Z,10.67
2023-02-03T10:18:15.034Z,10.67
2023-02-03T10:19:21.450Z,10.68
2023-02-03T10:20:35.732Z,10.68
2023-02-03T10:21:40.255Z,10.69
2023-02-03T10:22:46.773Z,10.70
2023-02-03T10:23:51.136Z,10.70
2023-02-03T10:25:00.534Z,10.72
2023-02-03T10:26:20.710Z,10.74
2023-02-03T10:27:25.878Z,10.76
2023-02-03T10:28:41.452Z,10.75
2023-02-03T10:30:00.152Z,10.78
2023-02-03T10:31:09.862Z,10.79
2023-02-03T10:32:14.007Z,10.78
2023-02-03T10:33:18.760Z,10.78
2023-02-03T10:34:22.907Z,10.79
2023-02-03T10:35:34.884Z,10.80
2023-02-03T10:36:51.836Z,10.81
2023-02-03T10:37:59.329Z,10.82
2023-02-03T10:39:07.382Z,10.84
2023-02-03T10:40:14.251Z,10.85
2023-02-03T10:41:17.052Z,10.86
2023-02-03T10:42:20.306Z,10.87
2023-02-03T10:43:40.594Z,10.88
2023-02-03T10:44:45.463Z,10.89
2023-02-03T10:45:49.497Z,10.90
2023-02-03T10:46:53.475Z,10.91
2023-02-03T10:47:56.043Z,10.91
2023-02-03T10:48:59.062Z,10.91
2023-02-03T10:50:17.624Z,10.92
2023-02-03T10:51:24.188Z,10.94
2023-02-03T10:52:37.219Z,10.93
2023-02-03T10:53:47.442Z,10.93
2023-02-03T10:54:50.287Z,10.92
2023-02-03T10:56:03.596Z,10.93
2023-02-03T10:57:11.211Z,10.95
2023-02-03T10:58:17.761Z,10.95
2023-02-03T10:59:30.340Z,10.94
2023-02-03T11:00:34.295Z,10.96
2023-02-03T11:01:50.126Z,10.98
2023-02-03T11:03:08.950Z,10.98
2023-02-03T11:04:26.830Z,10.99
2023-02-03T11:05:30.099Z,11.01
2023-02-03T11:06:36.575Z,11.03
2023-02-03T11:07:38.581Z,11.02
2023-02-03T11:08:43.625Z,11.03
2023-02-03T11:09:46.240Z,11.03
2023-02-03T11:10:48.382Z,11.04
2023-02-03T11:12:06.283Z,11.04
2023-02-03T11:13:13.216Z,11.05
2023-02-03T11:14:18.122Z,11.05
2023-02-03T11:15:21.147Z,11.06
2023-02-03T11:16:25.458Z,11.08
2023-02-03T11:17:32.835Z,11.07
2023-02-03T11:18:54.014Z,11.08
2023-02-03T11:20:03.579Z,11.08
2023-02-03T11:21:16.271Z,11.08
2023-02-03T11:22:31.106Z,11.07
2023-02-03T11:23:32.972Z,11.07
2023-02-03T11:24:40.363Z,11.07
2023-02-03T11:25:45.694Z,11.07
2023-02-03T11:27:03.010Z,11.07
2023-02-03T11:28:14.335Z,11.07
2023-02-03T11:29:23.686Z,11.07
2023-02-03T11:30:30.055Z,11.06
2023-02-03T11:31:39.246Z,11.05
2023-02-03T11:32:43.248Z,11.05
2023-02-03T11:33:49.301Z,11.05
2023-02-03T11:35:03.878Z,11.06
2023-02-03T11:36:07.210Z,11.05
2023-02-03T11:37:26.932Z,11.07
2023-02-03T11:38:36.530Z,11.08
2023-02-03T11:39:39.345Z,11.08
2023-02-03T11:40:41.853Z,11.08
2023-02-03T11:41:44.588Z,11.08
2023-02-03T11:43:00.856Z,11.07
2023-02-03T11:44:11.329Z,11.07
2023-02-03T11:45:15.550Z,11.08
2023-02-03T11:46:17.163Z,11.07
2023-02-03T11:47:22.753Z,11.08
2023-02-03T11:48:30.439Z,11.10
2023-02-03T11:50:04.628Z,11.09
2023-02-03T11:51:21.192Z,11.09
2023-02-03T11:52:46.770Z,11.08
2023-02-03T11:54:04.411Z,11.11
2023-02-03T11:55:20.187Z,11.10
2023-02-03T11:56:33.083Z,11.12
2023-02-03T11:57:49.037Z,11.12
2023-02-03T11:59:10.039Z,11.12
2023-02-03T12:00:25.977Z,11.12
2023-02-03T12:01:55.149Z,11.12
2023-02-03T12:03:22.204Z,11.14
2023-02-03T12:04:44.807Z,11.14
2023-02-03T12:06:02.854Z,11.14
2023-02-03T12:07:22.716Z,11.17
2023-02-03T12:08:40.453Z,11.17
2023-02-03T12:09:57.838Z,11.16
2023-02-03T12:11:10.821Z,11.16
2023-02-03T12:12:38.750Z,11.17
2023-02-03T12:13:56.329Z,11.19
2023-02-03T12:15:10.716Z,11.17
2023-02-03T12:16:27.617Z,11.18
2023-02-03T12:17:57.880Z,11.18
2023-02-03T12:19:10.926Z,11.19
2023-02-03T12:20:28.372Z,11.20
2023-02-03T12:21:44.177Z,11.19
2023-02-03T12:22:57.173Z,11.20
2023-02-03T12:24:08.630Z,11.21
2023-02-03T12:25:24.286Z,11.22
2023-02-03T12:26:31.053Z,11.23
2023-02-03T12:27:46.792Z,11.23
2023-02-03T12:29:03.061Z,11.24
2023-02-03T12:30:11.207Z,11.25
2023-02-03T12:31:19.210Z,11.25
2023-02-03T12:32:28.996Z,11.25
2023-02-03T12:33:36.255Z,11.27
2023-02-03T12:34:43.996Z,11.26
2023-02-03T12:35:51.903Z,11.27
2023-02-03T12:37:01.852Z,11.29
2023-02-03T12:38:07.906Z,11.30
2023-02-03T12:39:19.613Z,11.30
2023-02-03T12:40:31.859Z,11.32
2023-02-03T12:41:39.087Z,11.32
2023-02-03T12:42:47.565Z,11.33
2023-02-03T12:43:53.111Z,11.34
2023-02-03T12:45:01.797Z,11.36
2023-02-03T12:46:11.746Z,11.36
2023-02-03T12:47:20.251Z,11.37
2023-02-03T12:48:26.881Z,11.37
2023-02-03T12:49:36.301Z,11.37
2023-02-03T12:50:41.871Z,11.40
2023-02-03T12:51:49.698Z,11.41
2023-02-03T12:52:56.708Z,11.41
2023-02-03T12:54:03.025Z,11.42
2023-02-03T12:55:16.971Z,11.42
2023-02-03T12:56:26.963Z,11.42
2023-02-03T12:57:35.855Z,11.44
2023-02-03T12:58:42.863Z,11.44
2023-02-03T12:59:59.884Z,11.45
2023-02-03T13:01:07.124Z,11.46
2023-02-03T13:02:15.580Z,11.47
2023-02-03T13:03:24.887Z,11.50
2023-02-03T13:04:33.003Z,11.51
2023-02-03T13:05:43.396Z,11.53
2023-02-03T13:06:53.295Z,11.56
2023-02-03T13:08:02.632Z,11.58
2023-02-03T13:09:20.483Z,11.60
2023-02-03T13:10:28.230Z,11.61
2023-02-03T13:11:37.806Z,11.62
2023-02-03T13:12:42.768Z,11.64
2023-02-03T13:13:49.580Z,11.65
2023-02-03T13:14:56.948Z,11.66
2023-02-03T13:16:02.765Z,11.67
2023-02-03T13:17:10.002Z,11.69
2023-02-03T13:18:26.173Z,11.71
2023-02-03T13:19:37.054Z,11.73
2023-02-03T13:20:40.672Z,11.72
2023-02-03T13:21:46.474Z,11.73
2023-02-03T13:22:51.250Z,11.74
2023-02-03T13:23:54.925Z,11.75
2023-02-03T13:25:02.522Z,11.76
2023-02-03T13:26:19.849Z,11.77
2023-02-03T13:27:42.603Z,11.76
2023-02-03T13:29:00.015Z,11.76
2023-02-03T13:30:26.192Z,11.75
2023-02-03T13:31:43.011Z,11.75
2023-02-03T13:33:16.055Z,11.75
2023-02-03T13:34:50.026Z,11.75
2023-02-03T13:36:04.487Z,11.73
2023-02-03T13:37:39.550Z,11.72
2023-02-03T13:39:02.392Z,11.72
2023-02-03T13:40:18.652Z,11.73
2023-02-03T13:41:28.741Z,11.73
2023-02-03T13:42:33.335Z,11.75
2023-02-03T13:43:41.516Z,11.76
2023-02-03T13:44:45.874Z,11.78
2023-02-03T13:45:51.957Z,11.81
2023-02-03T13:46:57.350Z,11.83
2023-02-03T13:48:08.380Z,11.85
2023-02-03T13:49:11.524Z,11.86
2023-02-03T13:50:21.281Z,11.87
2023-02-03T13:51:29.071Z,11.89
2023-02-03T13:52:37.341Z,11.89
2023-02-03T13:53:42.369Z,11.91
2023-02-03T13:54:44.517Z,11.90
2023-02-03T13:55:56.120Z,11.91
2023-02-03T13:57:02.293Z,11.90
2023-02-03T13:58:07.462Z,11.91
2023-02-03T13:59:31.676Z,11.90
2023-02-03T14:01:04.652Z,11.87
2023-02-03T14:02:42.858Z,11.84
2023-02-03T14:03:46.152Z,11.83
2023-02-03T14:04:54.062Z,11.81
2023-02-03T14:05:58.836Z,11.81
2023-02-03T14:07:33.229Z,11.80
2023-02-03T14:08:48.989Z,11.78
2023-02-03T14:10:15.800Z,11.78
2023-02-03T14:11:40.829Z,11.76
2023-02-03T14:12:59.531Z,11.77
2023-02-03T14:14:45.669Z,11.77
2023-02-03T14:16:15.254Z,11.76
2023-02-03T14:18:03.422Z,11.76
2023-02-03T14:19:09.623Z,11.75